Terminal Aerodrome Forecast
Issued by NWS Sioux Falls, SD

Home | Current Version | Previous Version | Graphics & Text | Print | Product List | Glossary On
Versions: 1 2 3 4 5 6 7 8 9 10 11 12 13 14 15 16 17
000
FTUS43 KFSD 290702 AAA
TAFSUX
TAF AMD
KSUX 290702Z 2907/3006 02007KT 5SM BR OVC008
     FM291400 04008KT P6SM OVC015
     FM292300 06010KT P6SM OVC040=

USA.gov is the U.S. government's official web portal to all federal, state and local government web resources and services.